Flight Track Log - Related Links

Times and Time Zones

All times are in EDT time to prevent confusion due to time zone crossing. See the GJS9601 flight status page for this flight to view local times or setup timezone preferences in your user account.

Time Position Orientation Groundspeed Altitude Reporting Facility
EDT Latitude Longitude Course Direction KTS MPH feet Rate Location/Type
Mon 08:14:29 AM 41.9500 -87.9000 217° Southwest 127 146 2,000  Level Chicago TRACON
Mon 08:15:29 AM 41.9167 -87.9333 201° Southwest 198 228 5,000 2,596 Climbing Chicago TRACON
Mon 08:17:20 AM 41.8192 -87.9847 184° South 223 257 9,400 2,667 Climbing Chicago Center
Mon 08:18:20 AM 41.7525 -87.9917 186° South 223 257 12,600 2,350 Climbing Chicago Center
Mon 08:19:20 AM 41.6756 -88.0017 185° South 255 293 14,100 2,300 Climbing Chicago Center
Mon 08:20:20 AM 41.5861 -88.0117 184° South 297 342 17,200 2,950 Climbing Chicago Center
Mon 08:21:20 AM 41.5006 -88.0192 192° South 310 357 20,000 2,350 Climbing Chicago Center
Mon 08:22:20 AM 41.4092 -88.0458 200° South 316 364 21,900 700 Climbing Chicago Center
Mon 08:23:20 AM 41.3117 -88.0922 202° Southwest 328 377 21,400 -750 Descending Chicago Center
Mon 08:24:20 AM 41.2247 -88.1381 200° South 341 392 20,400 -700 Descending Chicago Center
Mon 08:25:20 AM 41.1397 -88.1781 202° Southwest 341 392 20,000 -200 Descending Chicago Center
Mon 08:26:20 AM 41.0586 -88.2208 200° South 335 386 20,000  Level Chicago Center
Mon 08:27:20 AM 40.9758 -88.2608 201° Southwest 330 380 20,000  Level Chicago Center
Mon 08:28:20 AM 40.8906 -88.3036 200° South 330 380 20,000  Level Chicago Center
Mon 08:29:20 AM 40.8036 -88.3461 200° South 330 380 20,000  Level Chicago Center
Mon 08:30:20 AM 40.7206 -88.3856 199° South 330 380 20,000  Level Chicago Center
Mon 08:31:20 AM 40.6333 -88.4253 203° Southwest 330 380 20,000  Level Chicago Center
Mon 08:32:20 AM 40.5503 -88.4728 199° South 330 380 20,000  Level Chicago Center
Mon 08:33:20 AM 40.4714 -88.5094 200° South 335 386 20,000  Level Chicago Center
Mon 08:35:29 AM 40.2875 -88.5956 200° South 339 390 20,000  Level Kansas City Center
Mon 08:36:29 AM 40.2000 -88.6383 200° South 334 384 20,000  Level Kansas City Center
Mon 08:37:29 AM 40.1144 -88.6781 200° South 334 384 20,000  Level Kansas City Center
Mon 08:38:29 AM 40.0247 -88.7206 200° South 339 390 20,000  Level Kansas City Center
Mon 08:39:29 AM 39.9372 -88.7628 200° South 344 396 20,000  Level Kansas City Center
Mon 08:40:29 AM 39.8475 -88.8053 199° South 344 396 20,000  Level Kansas City Center
Mon 08:41:29 AM 39.7536 -88.8478 201° Southwest 344 396 20,000  Level Kansas City Center
Mon 08:42:29 AM 39.6661 -88.8925 199° South 344 396 20,000  Level Kansas City Center
Mon 08:43:29 AM 39.5783 -88.9317 201° Southwest 344 396 20,000  Level Kansas City Center
Mon 08:44:29 AM 39.4867 -88.9767 199° South 344 396 20,000  Level Kansas City Center
Mon 08:45:29 AM 39.4008 -89.0153 200° South 339 390 20,000  Level Kansas City Center
Mon 08:46:29 AM 39.3131 -89.0569 200° South 339 390 20,000 -100 Level Kansas City Center
Mon 08:47:29 AM 39.2253 -89.0983 201° Southwest 344 396 19,800 -700 Descending Kansas City Center
Mon 08:48:29 AM 39.1478 -89.1364 202° Southwest 339 390 18,600 -1,654 Descending Kansas City Center
Mon 08:49:36 AM 39.0811 -89.1717 250° West 299 344 16,300 -1,963 Descending FAA TRACON SMA TRACON (SMA)
Mon 08:50:16 AM 39.0625 -89.2364 255° West 317 365 15,100 -2,024 Descending FAA TRACON SMA TRACON (SMA)
Mon 08:50:59 AM 39.0436 -89.3258 252° West 340 391 13,500 -2,100 Descending FAA TRACON SMA TRACON (SMA)
Mon 08:51:36 AM 39.0250 -89.3983 253° West 349 402 12,300 -1,870 Descending FAA TRACON SMA TRACON (SMA)
Mon 08:52:16 AM 39.0083 -89.4700 259° West 339 390 11,100 -975 Descending FAA TRACON SMA TRACON (SMA)
Mon 08:52:56 AM 38.9969 -89.5447 270° West 304 350 11,000 -600 Descending FAA TRACON SMA TRACON (SMA)
Mon 08:53:36 AM 38.9972 -89.6144 267° West 284 327 10,300 -825 Descending FAA TRACON SMA TRACON (SMA)
Mon 08:54:16 AM 38.9944 -89.6731 248° West 266 306 9,900 -889 Descending FAA TRACON SMA TRACON (SMA)
Mon 08:54:57 AM 38.9772 -89.7289 245° Southwest 241 277 9,100 -1,350 Descending FAA TRACON SMA TRACON (SMA)
Mon 08:55:36 AM 38.9578 -89.7814 243° Southwest 235 270 8,100 -1,575 Descending FAA TRACON SMA TRACON (SMA)
Mon 08:56:17 AM 38.9381 -89.8317 243° Southwest 227 261 7,000 -1,500 Descending FAA TRACON SMA TRACON (SMA)
Mon 08:56:56 AM 38.9203 -89.8761 240° Southwest 226 260 6,100 -1,425 Descending FAA TRACON SMA TRACON (SMA)
Mon 08:57:37 AM 38.8986 -89.9253 245° Southwest 230 265 5,100 -825 Descending FAA TRACON SMA TRACON (SMA)
Mon 08:58:16 AM 38.8817 -89.9711 245° Southwest 231 266 5,000 -684 Descending FAA TRACON SMA TRACON (SMA)
Mon 08:58:56 AM 38.8628 -90.0228 243° Southwest 231 266 4,200 -1,111 Descending FAA TRACON SMA TRACON (SMA)
Mon 08:59:37 AM 38.8425 -90.0728 242° Southwest 229 264 3,500 -525 Descending FAA TRACON SMA TRACON (SMA)
Mon 09:00:16 AM 38.8250 -90.1158 242° Southwest 222 255 3,500 -380 Level FAA TRACON SMA TRACON (SMA)
Mon 09:00:56 AM 38.8069 -90.1603 244° Southwest 199 229 3,000 -900 Descending FAA TRACON SMA TRACON (SMA)
Mon 09:01:36 AM 38.7914 -90.2008 242° Southwest 181 208 2,300 -840 Descending FAA TRACON SMA TRACON (SMA)
Mon 09:02:36 AM 38.7722 -90.2472 243° Southwest 127 146 1,600 -720 Descending FAA TRACON SMA TRACON (SMA)
Mon 09:03:16 AM 38.7633 -90.2692 243° Southwest 112 129 1,100 -675 Descending FAA TRACON SMA TRACON (SMA)
Mon 09:03:56 AM 38.7536 -90.2939 243° Southwest 113 130 700 -600 Descending FAA TRACON SMA TRACON (SMA)

Login

Don't have an account? Register now (free) for customized features, flight alerts, and more!